sensor_id;sensor_type;location;lat;lon;timestamp;temperature;humidity
5017;DHT22;2527;50.892;16.706;2023-09-12T00:00:02;20.70;99.90
5017;DHT22;2527;50.892;16.706;2023-09-12T00:02:30;20.70;99.90
5017;DHT22;2527;50.892;16.706;2023-09-12T00:04:56;20.70;99.90
5017;DHT22;2527;50.892;16.706;2023-09-12T00:07:21;20.70;99.90
5017;DHT22;2527;50.892;16.706;2023-09-12T00:09:47;20.60;99.90
5017;DHT22;2527;50.892;16.706;2023-09-12T00:12:17;20.70;99.90
5017;DHT22;2527;50.892;16.706;2023-09-12T00:14:43;20.70;99.90
5017;DHT22;2527;50.892;16.706;2023-09-12T00:17:09;20.70;99.90
5017;DHT22;2527;50.892;16.706;2023-09-12T00:19:34;20.60;99.90
5017;DHT22;2527;50.892;16.706;2023-09-12T00:22:00;20.60;99.90
5017;DHT22;2527;50.892;16.706;2023-09-12T00:24:26;20.60;99.90
5017;DHT22;2527;50.892;16.706;2023-09-12T00:29:16;20.60;99.90
5017;DHT22;2527;50.892;16.706;2023-09-12T00:31:42;20.60;99.90
5017;DHT22;2527;50.892;16.706;2023-09-12T00:34:09;20.60;99.90
5017;DHT22;2527;50.892;16.706;2023-09-12T00:36:35;20.60;99.90
5017;DHT22;2527;50.892;16.706;2023-09-12T00:39:03;20.60;99.90
5017;DHT22;2527;50.892;16.706;2023-09-12T00:41:29;20.60;99.90
5017;DHT22;2527;50.892;16.706;2023-09-12T00:43:55;20.60;99.90
5017;DHT22;2527;50.892;16.706;2023-09-12T00:46:22;20.50;99.90
5017;DHT22;2527;50.892;16.706;2023-09-12T00:51:13;20.50;99.90
5017;DHT22;2527;50.892;16.706;2023-09-12T00:53:39;20.50;99.90
5017;DHT22;2527;50.892;16.706;2023-09-12T00:58:43;20.40;99.90
5017;DHT22;2527;50.892;16.706;2023-09-12T01:01:09;20.40;99.90
5017;DHT22;2527;50.892;16.706;2023-09-12T01:03:36;20.40;99.90
5017;DHT22;2527;50.892;16.706;2023-09-12T01:06:02;20.40;99.90
5017;DHT22;2527;50.892;16.706;2023-09-12T01:08:28;20.40;99.90
5017;DHT22;2527;50.892;16.706;2023-09-12T01:10:55;20.40;99.90
5017;DHT22;2527;50.892;16.706;2023-09-12T01:13:21;20.40;99.90
5017;DHT22;2527;50.892;16.706;2023-09-12T01:15:46;20.50;99.90
5017;DHT22;2527;50.892;16.706;2023-09-12T01:18:12;20.50;99.90
5017;DHT22;2527;50.892;16.706;2023-09-12T01:30:39;20.40;99.90
5017;DHT22;2527;50.892;16.706;2023-09-12T01:35:38;20.40;99.90
5017;DHT22;2527;50.892;16.706;2023-09-12T01:38:03;20.40;99.90
5017;DHT22;2527;50.892;16.706;2023-09-12T01:42:58;20.40;99.90
5017;DHT22;2527;50.892;16.706;2023-09-12T01:45:26;20.40;99.90
5017;DHT22;2527;50.892;16.706;2023-09-12T01:47:52;20.30;99.90
5017;DHT22;2527;50.892;16.706;2023-09-12T01:50:18;20.30;99.90
5017;DHT22;2527;50.892;16.706;2023-09-12T01:52:45;20.30;99.90
5017;DHT22;2527;50.892;16.706;2023-09-12T01:55:11;20.20;99.90
5017;DHT22;2527;50.892;16.706;2023-09-12T01:57:37;20.20;99.90
5017;DHT22;2527;50.892;16.706;2023-09-12T02:00:04;20.10;99.90
5017;DHT22;2527;50.892;16.706;2023-09-12T02:02:29;20.10;99.90
5017;DHT22;2527;50.892;16.706;2023-09-12T02:05:12;19.70;99.90
5017;DHT22;2527;50.892;16.706;2023-09-12T02:07:40;20.10;99.90
5017;DHT22;2527;50.892;16.706;2023-09-12T02:12:42;20.10;99.90
5017;DHT22;2527;50.892;16.706;2023-09-12T02:15:07;20.10;99.90
5017;DHT22;2527;50.892;16.706;2023-09-12T02:17:33;20.10;99.90
5017;DHT22;2527;50.892;16.706;2023-09-12T02:19:58;20.00;99.90
5017;DHT22;2527;50.892;16.706;2023-09-12T02:22:24;20.00;99.90
5017;DHT22;2527;50.892;16.706;2023-09-12T02:24:51;20.00;99.90
5017;DHT22;2527;50.892;16.706;2023-09-12T02:27:17;19.90;99.90
5017;DHT22;2527;50.892;16.706;2023-09-12T02:29:43;19.90;99.90
5017;DHT22;2527;50.892;16.706;2023-09-12T02:32:08;19.90;99.90
5017;DHT22;2527;50.892;16.706;2023-09-12T02:34:34;19.90;99.90
5017;DHT22;2527;50.892;16.706;2023-09-12T02:37:01;19.90;99.90
5017;DHT22;2527;50.892;16.706;2023-09-12T02:39:27;19.90;99.90
5017;DHT22;2527;50.892;16.706;2023-09-12T02:41:53;19.90;99.90
5017;DHT22;2527;50.892;16.706;2023-09-12T02:44:19;19.90;99.90
5017;DHT22;2527;50.892;16.706;2023-09-12T02:46:45;19.90;99.90
5017;DHT22;2527;50.892;16.706;2023-09-12T02:49:10;19.90;99.90
5017;DHT22;2527;50.892;16.706;2023-09-12T02:51:39;19.90;99.90
5017;DHT22;2527;50.892;16.706;2023-09-12T02:54:05;19.90;99.90
5017;DHT22;2527;50.892;16.706;2023-09-12T02:56:31;19.90;99.90
5017;DHT22;2527;50.892;16.706;2023-09-12T02:58:57;19.80;99.90
5017;DHT22;2527;50.892;16.706;2023-09-12T03:01:23;19.80;99.90
5017;DHT22;2527;50.892;16.706;2023-09-12T03:03:53;19.80;99.90
5017;DHT22;2527;50.892;16.706;2023-09-12T03:06:19;19.80;99.90
5017;DHT22;2527;50.892;16.706;2023-09-12T03:08:45;19.80;99.90
5017;DHT22;2527;50.892;16.706;2023-09-12T03:11:11;19.80;99.90
5017;DHT22;2527;50.892;16.706;2023-09-12T03:13:37;19.80;99.90
5017;DHT22;2527;50.892;16.706;2023-09-12T03:18:39;19.80;99.90
5017;DHT22;2527;50.892;16.706;2023-09-12T03:23:40;19.70;99.90
5017;DHT22;2527;50.892;16.706;2023-09-12T03:26:05;19.70;99.90
5017;DHT22;2527;50.892;16.706;2023-09-12T03:28:31;19.70;99.90
5017;DHT22;2527;50.892;16.706;2023-09-12T03:31:05;19.70;99.90
5017;DHT22;2527;50.892;16.706;2023-09-12T03:33:31;19.70;99.90
5017;DHT22;2527;50.892;16.706;2023-09-12T03:38:22;19.80;99.90
5017;DHT22;2527;50.892;16.706;2023-09-12T03:43:23;19.80;99.90
5017;DHT22;2527;50.892;16.706;2023-09-12T03:48:24;19.80;99.90
5017;DHT22;2527;50.892;16.706;2023-09-12T03:50:50;19.80;99.90
5017;DHT22;2527;50.892;16.706;2023-09-12T03:53:17;19.80;99.90
5017;DHT22;2527;50.892;16.706;2023-09-12T03:55:42;19.80;99.90
5017;DHT22;2527;50.892;16.706;2023-09-12T03:58:14;19.80;99.90
5017;DHT22;2527;50.892;16.706;2023-09-12T04:00:40;19.80;99.90
5017;DHT22;2527;50.892;16.706;2023-09-12T04:05:42;19.80;99.90
5017;DHT22;2527;50.892;16.706;2023-09-12T04:10:43;19.80;99.90
5017;DHT22;2527;50.892;16.706;2023-09-12T04:13:08;19.80;99.90
5017;DHT22;2527;50.892;16.706;2023-09-12T04:15:35;19.80;99.90
5017;DHT22;2527;50.892;16.706;2023-09-12T04:18:01;19.80;99.90
5017;DHT22;2527;50.892;16.706;2023-09-12T04:20:26;19.80;99.90
5017;DHT22;2527;50.892;16.706;2023-09-12T04:28:03;19.80;99.90
5017;DHT22;2527;50.892;16.706;2023-09-12T04:33:04;19.80;99.90
5017;DHT22;2527;50.892;16.706;2023-09-12T04:35:32;19.80;99.90
5017;DHT22;2527;50.892;16.706;2023-09-12T04:43:08;19.80;99.90
5017;DHT22;2527;50.892;16.706;2023-09-12T04:45:34;19.80;99.90
5017;DHT22;2527;50.892;16.706;2023-09-12T04:53:05;19.90;99.90
5017;DHT22;2527;50.892;16.706;2023-09-12T04:55:31;19.90;99.90
5017;DHT22;2527;50.892;16.706;2023-09-12T04:57:57;19.90;99.90
5017;DHT22;2527;50.892;16.706;2023-09-12T05:00:22;20.00;99.90
5017;DHT22;2527;50.892;16.706;2023-09-12T05:02:48;20.00;99.90
5017;DHT22;2527;50.892;16.706;2023-09-12T05:07:50;20.10;99.90
5017;DHT22;2527;50.892;16.706;2023-09-12T05:10:17;20.10;99.90
5017;DHT22;2527;50.892;16.706;2023-09-12T05:12:44;20.20;99.90
5017;DHT22;2527;50.892;16.706;2023-09-12T05:32:04;24.50;99.90
5017;DHT22;2527;50.892;16.706;2023-09-12T05:34:30;24.50;99.90
5017;DHT22;2527;50.892;16.706;2023-09-12T05:42:07;24.10;99.90
5017;DHT22;2527;50.892;16.706;2023-09-12T05:44:34;24.10;99.90
5017;DHT22;2527;50.892;16.706;2023-09-12T05:47:00;24.00;99.90
5017;DHT22;2527;50.892;16.706;2023-09-12T05:49:25;24.00;99.90
5017;DHT22;2527;50.892;16.706;2023-09-12T05:51:51;24.00;99.90
5017;DHT22;2527;50.892;16.706;2023-09-12T05:54:16;24.00;99.90
5017;DHT22;2527;50.892;16.706;2023-09-12T05:59:18;24.00;99.90
5017;DHT22;2527;50.892;16.706;2023-09-12T06:01:44;24.10;99.90
5017;DHT22;2527;50.892;16.706;2023-09-12T06:04:10;24.10;99.90
5017;DHT22;2527;50.892;16.706;2023-09-12T06:06:36;24.10;99.90
5017;DHT22;2527;50.892;16.706;2023-09-12T06:09:02;24.10;99.90
5017;DHT22;2527;50.892;16.706;2023-09-12T06:11:29;24.20;99.90
5017;DHT22;2527;50.892;16.706;2023-09-12T06:13:54;24.20;99.90
5017;DHT22;2527;50.892;16.706;2023-09-12T06:16:20;24.30;99.90
5017;DHT22;2527;50.892;16.706;2023-09-12T06:18:46;24.30;99.90
5017;DHT22;2527;50.892;16.706;2023-09-12T06:21:13;24.30;99.90
5017;DHT22;2527;50.892;16.706;2023-09-12T06:23:39;24.40;99.90
5017;DHT22;2527;50.892;16.706;2023-09-12T06:26:05;24.40;99.90
5017;DHT22;2527;50.892;16.706;2023-09-12T06:28:30;24.50;99.90
5017;DHT22;2527;50.892;16.706;2023-09-12T06:30:57;24.50;99.90
5017;DHT22;2527;50.892;16.706;2023-09-12T06:33:25;24.50;99.90
5017;DHT22;2527;50.892;16.706;2023-09-12T06:35:51;24.60;99.90
5017;DHT22;2527;50.892;16.706;2023-09-12T06:38:18;24.70;99.90
5017;DHT22;2527;50.892;16.706;2023-09-12T06:40:45;24.70;99.90
5017;DHT22;2527;50.892;16.706;2023-09-12T06:43:11;24.80;99.90
5017;DHT22;2527;50.892;16.706;2023-09-12T06:45:37;24.90;99.90
5017;DHT22;2527;50.892;16.706;2023-09-12T06:48:04;25.00;99.90
5017;DHT22;2527;50.892;16.706;2023-09-12T06:50:29;25.10;99.90
5017;DHT22;2527;50.892;16.706;2023-09-12T06:52:56;25.20;99.90
5017;DHT22;2527;50.892;16.706;2023-09-12T06:55:21;25.20;99.90
5017;DHT22;2527;50.892;16.706;2023-09-12T06:57:47;25.30;99.90
5017;DHT22;2527;50.892;16.706;2023-09-12T07:00:13;25.40;99.90
5017;DHT22;2527;50.892;16.706;2023-09-12T07:02:39;25.60;99.90
5017;DHT22;2527;50.892;16.706;2023-09-12T07:05:05;25.80;99.90
5017;DHT22;2527;50.892;16.706;2023-09-12T07:07:30;25.90;99.90
5017;DHT22;2527;50.892;16.706;2023-09-12T07:09:56;25.90;99.90
5017;DHT22;2527;50.892;16.706;2023-09-12T07:12:22;26.00;99.90
5017;DHT22;2527;50.892;16.706;2023-09-12T07:14:47;26.00;99.90
5017;DHT22;2527;50.892;16.706;2023-09-12T07:17:14;26.10;99.90
5017;DHT22;2527;50.892;16.706;2023-09-12T07:19:40;26.10;99.90
5017;DHT22;2527;50.892;16.706;2023-09-12T07:22:05;26.20;99.90
5017;DHT22;2527;50.892;16.706;2023-09-12T07:24:31;26.20;99.90
5017;DHT22;2527;50.892;16.706;2023-09-12T07:26:56;26.20;99.90
5017;DHT22;2527;50.892;16.706;2023-09-12T07:29:23;26.30;99.90
5017;DHT22;2527;50.892;16.706;2023-09-12T07:31:51;26.30;99.90
5017;DHT22;2527;50.892;16.706;2023-09-12T07:34:17;26.40;99.90
5017;DHT22;2527;50.892;16.706;2023-09-12T07:36:43;26.50;99.90
5017;DHT22;2527;50.892;16.706;2023-09-12T07:39:08;26.50;99.90
5017;DHT22;2527;50.892;16.706;2023-09-12T07:41:34;26.60;99.90
5017;DHT22;2527;50.892;16.706;2023-09-12T07:44:00;26.70;99.90
5017;DHT22;2527;50.892;16.706;2023-09-12T07:46:27;26.70;99.90
5017;DHT22;2527;50.892;16.706;2023-09-12T07:48:53;26.80;99.90
5017;DHT22;2527;50.892;16.706;2023-09-12T07:51:18;26.80;99.90
5017;DHT22;2527;50.892;16.706;2023-09-12T07:53:44;26.90;99.90
5017;DHT22;2527;50.892;16.706;2023-09-12T07:56:10;26.90;99.90
5017;DHT22;2527;50.892;16.706;2023-09-12T07:58:36;26.90;99.90
5017;DHT22;2527;50.892;16.706;2023-09-12T08:01:05;27.00;99.90
5017;DHT22;2527;50.892;16.706;2023-09-12T08:03:32;27.10;99.90
5017;DHT22;2527;50.892;16.706;2023-09-12T08:05:58;27.20;99.90
5017;DHT22;2527;50.892;16.706;2023-09-12T08:08:23;27.30;99.90
5017;DHT22;2527;50.892;16.706;2023-09-12T08:10:49;27.40;99.90
5017;DHT22;2527;50.892;16.706;2023-09-12T08:13:15;27.40;99.90
5017;DHT22;2527;50.892;16.706;2023-09-12T08:15:41;27.50;99.90
5017;DHT22;2527;50.892;16.706;2023-09-12T08:18:07;27.50;99.90
5017;DHT22;2527;50.892;16.706;2023-09-12T08:20:33;27.60;99.90
5017;DHT22;2527;50.892;16.706;2023-09-12T08:22:59;27.70;99.90
5017;DHT22;2527;50.892;16.706;2023-09-12T08:25:24;27.70;99.90
5017;DHT22;2527;50.892;16.706;2023-09-12T08:27:50;27.80;99.90
5017;DHT22;2527;50.892;16.706;2023-09-12T08:30:16;27.80;99.90
5017;DHT22;2527;50.892;16.706;2023-09-12T08:32:41;27.70;99.90
5017;DHT22;2527;50.892;16.706;2023-09-12T08:35:09;27.70;99.90
5017;DHT22;2527;50.892;16.706;2023-09-12T08:37:36;27.70;99.90
5017;DHT22;2527;50.892;16.706;2023-09-12T08:40:01;27.70;99.90
5017;DHT22;2527;50.892;16.706;2023-09-12T08:42:28;27.70;99.90
5017;DHT22;2527;50.892;16.706;2023-09-12T08:44:54;27.70;99.90
5017;DHT22;2527;50.892;16.706;2023-09-12T08:47:20;27.80;99.90
5017;DHT22;2527;50.892;16.706;2023-09-12T12:01:39;27.80;99.90
5017;DHT22;2527;50.892;16.706;2023-09-12T12:50:41;27.70;99.90
5017;DHT22;2527;50.892;16.706;2023-09-12T13:00:54;27.80;99.90
5017;DHT22;2527;50.892;16.706;2023-09-12T13:05:54;27.70;99.90
5017;DHT22;2527;50.892;16.706;2023-09-12T13:26:27;27.80;99.90
5017;DHT22;2527;50.892;16.706;2023-09-12T13:31:29;27.80;99.90
5017;DHT22;2527;50.892;16.706;2023-09-12T13:33:55;27.80;99.90
5017;DHT22;2527;50.892;16.706;2023-09-12T13:36:20;27.70;99.90
5017;DHT22;2527;50.892;16.706;2023-09-12T13:38:46;27.70;99.90
5017;DHT22;2527;50.892;16.706;2023-09-12T13:41:13;27.70;99.90
5017;DHT22;2527;50.892;16.706;2023-09-12T13:43:39;27.70;99.90
5017;DHT22;2527;50.892;16.706;2023-09-12T13:46:05;27.70;99.90
5017;DHT22;2527;50.892;16.706;2023-09-12T13:48:32;27.70;99.90
5017;DHT22;2527;50.892;16.706;2023-09-12T13:51:00;27.70;99.90
5017;DHT22;2527;50.892;16.706;2023-09-12T13:53:25;27.70;99.90
5017;DHT22;2527;50.892;16.706;2023-09-12T13:55:51;27.70;99.90
5017;DHT22;2527;50.892;16.706;2023-09-12T13:58:17;27.70;99.90
5017;DHT22;2527;50.892;16.706;2023-09-12T14:00:43;27.60;99.90
5017;DHT22;2527;50.892;16.706;2023-09-12T14:03:09;27.70;99.90
5017;DHT22;2527;50.892;16.706;2023-09-12T14:05:35;27.60;99.90
5017;DHT22;2527;50.892;16.706;2023-09-12T14:08:01;27.60;99.90
5017;DHT22;2527;50.892;16.706;2023-09-12T14:10:27;27.60;99.90
5017;DHT22;2527;50.892;16.706;2023-09-12T14:12:52;27.60;99.90
5017;DHT22;2527;50.892;16.706;2023-09-12T14:15:18;27.60;99.90
5017;DHT22;2527;50.892;16.706;2023-09-12T14:17:43;27.60;99.90
5017;DHT22;2527;50.892;16.706;2023-09-12T14:20:09;27.60;99.90
5017;DHT22;2527;50.892;16.706;2023-09-12T14:22:36;27.60;99.90
5017;DHT22;2527;50.892;16.706;2023-09-12T14:25:01;27.60;99.90
5017;DHT22;2527;50.892;16.706;2023-09-12T14:27:27;27.60;99.90
5017;DHT22;2527;50.892;16.706;2023-09-12T14:29:53;27.60;99.90
5017;DHT22;2527;50.892;16.706;2023-09-12T14:32:19;27.60;99.90
5017;DHT22;2527;50.892;16.706;2023-09-12T14:34:46;27.60;99.90
5017;DHT22;2527;50.892;16.706;2023-09-12T14:37:12;27.60;99.90
5017;DHT22;2527;50.892;16.706;2023-09-12T14:39:37;27.60;99.90
5017;DHT22;2527;50.892;16.706;2023-09-12T14:42:03;27.60;99.90
5017;DHT22;2527;50.892;16.706;2023-09-12T14:44:34;27.60;99.90
5017;DHT22;2527;50.892;16.706;2023-09-12T14:47:00;27.50;99.90
5017;DHT22;2527;50.892;16.706;2023-09-12T14:49:25;27.50;99.90
5017;DHT22;2527;50.892;16.706;2023-09-12T14:51:51;27.50;99.90
5017;DHT22;2527;50.892;16.706;2023-09-12T14:54:18;27.50;99.90
5017;DHT22;2527;50.892;16.706;2023-09-12T14:56:43;27.50;99.90
5017;DHT22;2527;50.892;16.706;2023-09-12T14:59:09;27.50;99.90
5017;DHT22;2527;50.892;16.706;2023-09-12T15:01:36;27.50;99.90
5017;DHT22;2527;50.892;16.706;2023-09-12T15:04:02;27.50;99.90
5017;DHT22;2527;50.892;16.706;2023-09-12T15:06:27;27.50;99.90
5017;DHT22;2527;50.892;16.706;2023-09-12T15:08:53;27.50;99.90
5017;DHT22;2527;50.892;16.706;2023-09-12T15:11:19;27.50;99.90
5017;DHT22;2527;50.892;16.706;2023-09-12T15:13:45;27.50;99.90
5017;DHT22;2527;50.892;16.706;2023-09-12T15:16:11;27.50;99.90
5017;DHT22;2527;50.892;16.706;2023-09-12T15:18:37;27.50;99.90
5017;DHT22;2527;50.892;16.706;2023-09-12T15:21:08;27.50;99.90
5017;DHT22;2527;50.892;16.706;2023-09-12T15:23:33;27.50;99.90
5017;DHT22;2527;50.892;16.706;2023-09-12T15:25:59;27.50;99.90
5017;DHT22;2527;50.892;16.706;2023-09-12T15:28:24;27.50;99.90
5017;DHT22;2527;50.892;16.706;2023-09-12T15:30:50;27.50;99.90
5017;DHT22;2527;50.892;16.706;2023-09-12T15:33:16;27.50;99.90
5017;DHT22;2527;50.892;16.706;2023-09-12T15:35:42;27.50;99.90
5017;DHT22;2527;50.892;16.706;2023-09-12T15:38:07;27.50;99.90
5017;DHT22;2527;50.892;16.706;2023-09-12T15:40:33;27.50;99.90
5017;DHT22;2527;50.892;16.706;2023-09-12T15:42:59;27.50;99.90
5017;DHT22;2527;50.892;16.706;2023-09-12T15:45:25;27.50;99.90
5017;DHT22;2527;50.892;16.706;2023-09-12T15:47:51;27.40;99.90
5017;DHT22;2527;50.892;16.706;2023-09-12T15:50:16;27.40;99.90
5017;DHT22;2527;50.892;16.706;2023-09-12T15:52:42;27.40;99.90
5017;DHT22;2527;50.892;16.706;2023-09-12T15:55:09;27.30;99.90
5017;DHT22;2527;50.892;16.706;2023-09-12T15:57:35;27.30;99.90
5017;DHT22;2527;50.892;16.706;2023-09-12T16:00:03;27.30;99.90
5017;DHT22;2527;50.892;16.706;2023-09-12T16:02:32;27.30;99.90
5017;DHT22;2527;50.892;16.706;2023-09-12T16:04:58;27.20;99.90
5017;DHT22;2527;50.892;16.706;2023-09-12T16:07:23;27.20;99.90
5017;DHT22;2527;50.892;16.706;2023-09-12T16:09:49;27.10;99.90
5017;DHT22;2527;50.892;16.706;2023-09-12T16:12:15;27.00;99.90
5017;DHT22;2527;50.892;16.706;2023-09-12T16:14:40;27.00;99.90
5017;DHT22;2527;50.892;16.706;2023-09-12T16:17:06;27.00;99.90
5017;DHT22;2527;50.892;16.706;2023-09-12T16:19:33;26.90;99.90
5017;DHT22;2527;50.892;16.706;2023-09-12T16:21:58;26.90;99.90
5017;DHT22;2527;50.892;16.706;2023-09-12T16:24:24;26.80;99.90
5017;DHT22;2527;50.892;16.706;2023-09-12T16:26:50;26.70;99.90
5017;DHT22;2527;50.892;16.706;2023-09-12T16:29:16;26.60;99.90
5017;DHT22;2527;50.892;16.706;2023-09-12T16:31:42;26.50;99.90
5017;DHT22;2527;50.892;16.706;2023-09-12T16:34:07;26.50;99.90
5017;DHT22;2527;50.892;16.706;2023-09-12T16:36:33;26.40;99.90
5017;DHT22;2527;50.892;16.706;2023-09-12T16:38:59;26.40;99.90
5017;DHT22;2527;50.892;16.706;2023-09-12T16:41:25;26.30;99.90
5017;DHT22;2527;50.892;16.706;2023-09-12T16:43:52;26.30;99.90
5017;DHT22;2527;50.892;16.706;2023-09-12T16:46:18;26.20;99.90
5017;DHT22;2527;50.892;16.706;2023-09-12T16:48:43;26.20;99.90
5017;DHT22;2527;50.892;16.706;2023-09-12T16:51:11;26.10;99.90
5017;DHT22;2527;50.892;16.706;2023-09-12T16:53:38;26.10;99.90
5017;DHT22;2527;50.892;16.706;2023-09-12T16:56:04;26.00;99.90
5017;DHT22;2527;50.892;16.706;2023-09-12T16:58:29;26.00;99.90
5017;DHT22;2527;50.892;16.706;2023-09-12T17:00:57;25.90;99.90
5017;DHT22;2527;50.892;16.706;2023-09-12T17:03:23;25.90;99.90
5017;DHT22;2527;50.892;16.706;2023-09-12T17:05:48;25.90;99.90
5017;DHT22;2527;50.892;16.706;2023-09-12T17:08:14;25.80;99.90
5017;DHT22;2527;50.892;16.706;2023-09-12T17:10:40;25.80;99.90
5017;DHT22;2527;50.892;16.706;2023-09-12T17:13:06;25.70;99.90
5017;DHT22;2527;50.892;16.706;2023-09-12T17:15:32;25.70;99.90
5017;DHT22;2527;50.892;16.706;2023-09-12T17:18:02;25.70;99.90
5017;DHT22;2527;50.892;16.706;2023-09-12T17:20:27;25.60;99.90
5017;DHT22;2527;50.892;16.706;2023-09-12T17:22:54;25.50;99.90
5017;DHT22;2527;50.892;16.706;2023-09-12T17:25:19;25.40;99.90
5017;DHT22;2527;50.892;16.706;2023-09-12T17:27:45;25.40;99.90
5017;DHT22;2527;50.892;16.706;2023-09-12T17:30:12;25.30;99.90
5017;DHT22;2527;50.892;16.706;2023-09-12T17:32:40;25.30;99.90
5017;DHT22;2527;50.892;16.706;2023-09-12T17:35:06;25.20;99.90
5017;DHT22;2527;50.892;16.706;2023-09-12T17:37:31;25.20;99.90
5017;DHT22;2527;50.892;16.706;2023-09-12T17:39:58;25.20;99.90
5017;DHT22;2527;50.892;16.706;2023-09-12T17:42:24;25.10;99.90
5017;DHT22;2527;50.892;16.706;2023-09-12T17:44:49;25.00;99.90
5017;DHT22;2527;50.892;16.706;2023-09-12T17:47:16;25.00;99.90
5017;DHT22;2527;50.892;16.706;2023-09-12T17:49:41;25.00;99.90
5017;DHT22;2527;50.892;16.706;2023-09-12T17:52:07;25.00;99.90
5017;DHT22;2527;50.892;16.706;2023-09-12T17:54:33;24.90;99.90
5017;DHT22;2527;50.892;16.706;2023-09-12T17:56:59;24.90;99.90
5017;DHT22;2527;50.892;16.706;2023-09-12T17:59:25;24.80;99.90
5017;DHT22;2527;50.892;16.706;2023-09-12T18:01:52;24.70;99.90
5017;DHT22;2527;50.892;16.706;2023-09-12T18:04:17;24.70;99.90
5017;DHT22;2527;50.892;16.706;2023-09-12T18:06:44;24.70;99.90
5017;DHT22;2527;50.892;16.706;2023-09-12T18:09:09;24.70;99.90
5017;DHT22;2527;50.892;16.706;2023-09-12T18:11:35;24.60;99.90
5017;DHT22;2527;50.892;16.706;2023-09-12T18:14:01;24.60;99.90
5017;DHT22;2527;50.892;16.706;2023-09-12T18:16:27;24.60;99.90
5017;DHT22;2527;50.892;16.706;2023-09-12T18:18:53;24.60;99.90
5017;DHT22;2527;50.892;16.706;2023-09-12T18:21:19;24.60;99.90
5017;DHT22;2527;50.892;16.706;2023-09-12T18:23:45;24.60;99.90
5017;DHT22;2527;50.892;16.706;2023-09-12T18:26:11;24.60;99.90
5017;DHT22;2527;50.892;16.706;2023-09-12T18:28:40;24.60;99.90
5017;DHT22;2527;50.892;16.706;2023-09-12T18:31:07;24.60;99.90
5017;DHT22;2527;50.892;16.706;2023-09-12T18:33:33;24.60;99.90
5017;DHT22;2527;50.892;16.706;2023-09-12T18:35:58;24.60;99.90
5017;DHT22;2527;50.892;16.706;2023-09-12T18:38:24;24.60;99.90
5017;DHT22;2527;50.892;16.706;2023-09-12T18:40:50;24.60;99.90
5017;DHT22;2527;50.892;16.706;2023-09-12T18:43:16;24.60;99.90
5017;DHT22;2527;50.892;16.706;2023-09-12T18:45:41;24.60;99.90
5017;DHT22;2527;50.892;16.706;2023-09-12T18:48:10;24.50;99.90
5017;DHT22;2527;50.892;16.706;2023-09-12T18:50:35;24.50;99.90
5017;DHT22;2527;50.892;16.706;2023-09-12T18:53:01;24.50;99.90
5017;DHT22;2527;50.892;16.706;2023-09-12T18:55:28;24.50;99.90
5017;DHT22;2527;50.892;16.706;2023-09-12T18:57:55;24.50;99.90
5017;DHT22;2527;50.892;16.706;2023-09-12T19:00:21;24.50;99.90
5017;DHT22;2527;50.892;16.706;2023-09-12T19:02:46;24.50;99.90
5017;DHT22;2527;50.892;16.706;2023-09-12T19:05:12;24.50;99.90
5017;DHT22;2527;50.892;16.706;2023-09-12T19:07:38;24.50;99.90
5017;DHT22;2527;50.892;16.706;2023-09-12T19:10:05;24.50;99.90
5017;DHT22;2527;50.892;16.706;2023-09-12T19:12:32;24.50;99.90
5017;DHT22;2527;50.892;16.706;2023-09-12T19:15:01;24.50;99.90
5017;DHT22;2527;50.892;16.706;2023-09-12T19:17:27;24.50;99.90
5017;DHT22;2527;50.892;16.706;2023-09-12T19:19:55;24.50;99.90
5017;DHT22;2527;50.892;16.706;2023-09-12T19:22:22;24.40;99.90
5017;DHT22;2527;50.892;16.706;2023-09-12T19:24:47;24.40;99.90
5017;DHT22;2527;50.892;16.706;2023-09-12T19:27:13;24.40;99.90
5017;DHT22;2527;50.892;16.706;2023-09-12T19:29:46;24.30;99.90
5017;DHT22;2527;50.892;16.706;2023-09-12T19:32:12;24.30;99.90
5017;DHT22;2527;50.892;16.706;2023-09-12T19:34:38;24.20;99.90
5017;DHT22;2527;50.892;16.706;2023-09-12T19:37:04;24.10;99.90
5017;DHT22;2527;50.892;16.706;2023-09-12T19:39:30;24.00;99.90
5017;DHT22;2527;50.892;16.706;2023-09-12T19:41:56;23.90;99.90
5017;DHT22;2527;50.892;16.706;2023-09-12T19:44:24;23.90;99.90
5017;DHT22;2527;50.892;16.706;2023-09-12T19:46:52;23.80;99.90
5017;DHT22;2527;50.892;16.706;2023-09-12T19:49:18;23.80;99.90
5017;DHT22;2527;50.892;16.706;2023-09-12T19:51:44;23.70;99.90
5017;DHT22;2527;50.892;16.706;2023-09-12T19:54:13;23.70;99.90
5017;DHT22;2527;50.892;16.706;2023-09-12T19:56:39;23.60;99.90
5017;DHT22;2527;50.892;16.706;2023-09-12T19:59:04;23.50;99.90
5017;DHT22;2527;50.892;16.706;2023-09-12T20:01:31;23.50;99.90
5017;DHT22;2527;50.892;16.706;2023-09-12T20:03:57;23.40;99.90
5017;DHT22;2527;50.892;16.706;2023-09-12T20:06:23;23.30;99.90
5017;DHT22;2527;50.892;16.706;2023-09-12T20:08:49;23.20;99.90
5017;DHT22;2527;50.892;16.706;2023-09-12T20:11:15;23.10;99.90
5017;DHT22;2527;50.892;16.706;2023-09-12T20:13:40;23.00;99.90
5017;DHT22;2527;50.892;16.706;2023-09-12T20:16:12;22.90;99.90
5017;DHT22;2527;50.892;16.706;2023-09-12T20:18:38;22.90;99.90
5017;DHT22;2527;50.892;16.706;2023-09-12T20:21:04;22.90;99.90
5017;DHT22;2527;50.892;16.706;2023-09-12T20:23:29;22.90;99.90
5017;DHT22;2527;50.892;16.706;2023-09-12T20:25:55;22.80;99.90
5017;DHT22;2527;50.892;16.706;2023-09-12T20:28:22;22.80;99.90
5017;DHT22;2527;50.892;16.706;2023-09-12T20:30:49;22.70;99.90
5017;DHT22;2527;50.892;16.706;2023-09-12T20:33:14;22.80;99.90
5017;DHT22;2527;50.892;16.706;2023-09-12T20:35:41;22.70;99.90
5017;DHT22;2527;50.892;16.706;2023-09-12T20:38:06;22.70;99.90
5017;DHT22;2527;50.892;16.706;2023-09-12T20:40:32;22.70;99.90
5017;DHT22;2527;50.892;16.706;2023-09-12T20:42:58;22.70;99.90
5017;DHT22;2527;50.892;16.706;2023-09-12T20:45:24;22.70;99.90
5017;DHT22;2527;50.892;16.706;2023-09-12T20:47:50;22.70;99.90
5017;DHT22;2527;50.892;16.706;2023-09-12T20:50:19;22.60;99.90
5017;DHT22;2527;50.892;16.706;2023-09-12T20:52:55;22.60;99.90
5017;DHT22;2527;50.892;16.706;2023-09-12T20:55:21;22.60;99.90
5017;DHT22;2527;50.892;16.706;2023-09-12T20:57:47;22.60;99.90
5017;DHT22;2527;50.892;16.706;2023-09-12T21:00:13;22.60;99.90
5017;DHT22;2527;50.892;16.706;2023-09-12T21:02:40;22.60;99.90
5017;DHT22;2527;50.892;16.706;2023-09-12T21:05:09;22.60;99.90
5017;DHT22;2527;50.892;16.706;2023-09-12T21:07:35;22.50;99.90
5017;DHT22;2527;50.892;16.706;2023-09-12T21:10:00;22.60;99.90
5017;DHT22;2527;50.892;16.706;2023-09-12T21:12:26;22.50;99.90
5017;DHT22;2527;50.892;16.706;2023-09-12T21:14:52;22.50;99.90
5017;DHT22;2527;50.892;16.706;2023-09-12T21:17:18;22.50;99.90
5017;DHT22;2527;50.892;16.706;2023-09-12T21:19:43;22.50;99.90
5017;DHT22;2527;50.892;16.706;2023-09-12T21:22:09;22.50;99.90
5017;DHT22;2527;50.892;16.706;2023-09-12T21:24:35;22.40;99.90
5017;DHT22;2527;50.892;16.706;2023-09-12T21:27:02;22.40;99.90
5017;DHT22;2527;50.892;16.706;2023-09-12T21:29:28;22.40;99.90
5017;DHT22;2527;50.892;16.706;2023-09-12T21:31:54;22.30;99.90
5017;DHT22;2527;50.892;16.706;2023-09-12T21:34:20;22.20;99.90